createdAt,value
2022-09-21T00:01:46.913Z,76.70
2022-09-21T00:04:17.602Z,76.80
2022-09-21T00:06:47.193Z,76.80
2022-09-21T00:09:16.501Z,76.80
2022-09-21T00:11:45.627Z,76.80
2022-09-21T00:14:15.713Z,77.00
2022-09-21T00:16:44.919Z,77.10
2022-09-21T00:19:14.092Z,77.20
2022-09-21T00:21:44.846Z,77.40
2022-09-21T00:24:13.961Z,77.30
2022-09-21T00:26:43.036Z,77.20
2022-09-21T00:29:12.405Z,77.20
2022-09-21T00:31:41.734Z,77.30
2022-09-21T00:34:10.866Z,77.40
2022-09-21T00:36:39.976Z,77.50
2022-09-21T00:39:11.738Z,77.50
2022-09-21T00:41:40.869Z,77.50
2022-09-21T00:44:25.306Z,77.60
2022-09-21T00:46:57.449Z,77.60
2022-09-21T00:49:28.170Z,77.60
2022-09-21T00:51:59.093Z,77.60
2022-09-21T00:54:34.689Z,77.70
2022-09-21T00:57:04.807Z,77.70
2022-09-21T00:59:38.649Z,77.70
2022-09-21T01:02:08.326Z,77.70
2022-09-21T01:04:37.691Z,77.60
2022-09-21T01:07:12.395Z,77.60
2022-09-21T01:09:44.970Z,77.60
2022-09-21T01:12:27.739Z,77.60
2022-09-21T01:15:07.239Z,77.50
2022-09-21T01:17:46.185Z,77.50
2022-09-21T01:20:36.619Z,77.50
2022-09-21T01:23:28.069Z,77.60
2022-09-21T01:26:09.329Z,77.70
2022-09-21T01:29:04.210Z,77.80
2022-09-21T01:31:39.906Z,77.90
2022-09-21T01:34:16.124Z,77.80
2022-09-21T01:36:48.624Z,77.90
2022-09-21T01:39:21.098Z,77.90
2022-09-21T01:41:53.433Z,78.10
2022-09-21T01:44:27.760Z,78.20
2022-09-21T01:46:58.493Z,78.30
2022-09-21T01:49:33.347Z,78.30
2022-09-21T01:52:11.786Z,78.40
2022-09-21T01:54:44.487Z,78.70
2022-09-21T01:57:21.897Z,78.50
2022-09-21T01:59:55.650Z,78.50
2022-09-21T02:02:38.108Z,78.60
2022-09-21T02:05:08.193Z,78.60
2022-09-21T02:07:39.506Z,78.50
2022-09-21T02:10:09.667Z,78.40
2022-09-21T02:12:38.613Z,78.40
2022-09-21T02:15:10.556Z,78.10
2022-09-21T02:17:48.055Z,78.10
2022-09-21T02:20:25.108Z,78.10
2022-09-21T02:23:05.038Z,78.10
2022-09-21T02:25:47.410Z,78.20
2022-09-21T02:28:27.383Z,78.30
2022-09-21T02:31:07.471Z,78.30
2022-09-21T02:33:45.610Z,78.30
2022-09-21T02:36:23.424Z,78.30
2022-09-21T02:38:56.908Z,78.50
2022-09-21T02:41:30.267Z,78.70
2022-09-21T02:44:04.255Z,79.00
2022-09-21T02:46:39.024Z,79.00
2022-09-21T02:49:12.454Z,79.10
2022-09-21T02:51:47.250Z,79.30
2022-09-21T02:54:19.166Z,79.30
2022-09-21T02:56:51.228Z,79.40
2022-09-21T02:59:22.680Z,79.50
2022-09-21T03:01:53.973Z,79.40
2022-09-21T03:04:23.278Z,79.30
2022-09-21T03:06:52.283Z,79.30
2022-09-21T03:09:24.353Z,79.00
2022-09-21T03:11:53.442Z,79.10
2022-09-21T03:14:23.023Z,79.10
2022-09-21T03:16:53.559Z,79.20
2022-09-21T03:19:22.542Z,79.30
2022-09-21T03:21:51.503Z,79.40
2022-09-21T03:24:40.457Z,79.20
2022-09-21T03:27:09.433Z,79.10
2022-09-21T03:29:38.487Z,78.90
2022-09-21T03:32:09.235Z,78.80
2022-09-21T03:34:38.245Z,78.80
2022-09-21T03:37:08.691Z,78.70
2022-09-21T03:39:38.006Z,78.60
2022-09-21T03:42:09.220Z,78.60
2022-09-21T03:44:38.673Z,78.50
2022-09-21T03:47:09.060Z,78.60
2022-09-21T03:49:38.603Z,78.70
2022-09-21T03:52:07.651Z,78.70
2022-09-21T03:54:36.620Z,78.60
2022-09-21T03:57:05.874Z,78.60
2022-09-21T03:59:35.582Z,78.70
2022-09-21T04:02:04.636Z,78.80
2022-09-21T04:04:35.227Z,78.80
2022-09-21T04:07:08.165Z,78.90
2022-09-21T04:09:37.284Z,78.90
2022-09-21T04:12:06.635Z,79.00
2022-09-21T04:14:36.899Z,79.00
2022-09-21T04:17:06.235Z,79.00
2022-09-21T04:19:36.838Z,79.10
2022-09-21T04:22:06.360Z,79.20
2022-09-21T04:24:35.326Z,79.10
2022-09-21T04:27:04.413Z,79.10
2022-09-21T04:29:33.362Z,79.10
2022-09-21T04:32:02.659Z,79.10
2022-09-21T04:34:32.518Z,79.20
2022-09-21T04:37:02.877Z,79.20
2022-09-21T04:39:31.822Z,79.10
2022-09-21T04:42:00.837Z,79.10
2022-09-21T04:44:30.271Z,79.10
2022-09-21T04:46:59.318Z,79.20
2022-09-21T04:49:28.461Z,79.20
2022-09-21T04:51:57.425Z,79.30
2022-09-21T04:54:27.893Z,79.40
2022-09-21T04:56:57.049Z,79.50
2022-09-21T04:59:26.149Z,79.50
2022-09-21T05:01:55.122Z,79.60
2022-09-21T05:04:24.073Z,79.70
2022-09-21T05:06:54.142Z,79.70
2022-09-21T05:09:40.107Z,79.70
2022-09-21T05:12:10.917Z,79.60
2022-09-21T05:14:41.069Z,79.70
2022-09-21T05:17:10.052Z,79.50
2022-09-21T05:19:39.197Z,79.50
2022-09-21T05:22:08.923Z,79.50
2022-09-21T05:24:38.085Z,79.50
2022-09-21T05:27:07.306Z,79.60
2022-09-21T05:29:38.322Z,79.70
2022-09-21T05:32:13.980Z,79.90
2022-09-21T05:34:51.460Z,79.90
2022-09-21T05:37:47.386Z,79.90
2022-09-21T05:40:17.387Z,79.90
2022-09-21T05:42:47.006Z,79.80
2022-09-21T05:45:21.148Z,79.70
2022-09-21T05:48:08.001Z,79.80
2022-09-21T05:50:50.154Z,79.60
2022-09-21T05:53:49.555Z,79.50
2022-09-21T05:56:36.049Z,79.40
2022-09-21T05:59:21.585Z,79.40
2022-09-21T06:02:00.597Z,79.30
2022-09-21T06:04:30.305Z,79.20
2022-09-21T06:06:59.282Z,79.30
2022-09-21T06:09:28.253Z,79.30
2022-09-21T06:11:57.461Z,79.20
2022-09-21T06:14:26.656Z,79.10
2022-09-21T06:16:57.139Z,79.00
2022-09-21T06:19:26.100Z,78.90
2022-09-21T06:21:55.055Z,78.70
2022-09-21T06:24:25.231Z,78.70
2022-09-21T06:26:54.329Z,78.60
2022-09-21T06:29:23.812Z,78.50
2022-09-21T06:31:53.121Z,78.40
2022-09-21T06:34:23.481Z,78.40
2022-09-21T06:36:52.466Z,78.40
2022-09-21T06:39:21.484Z,78.40
2022-09-21T06:41:50.458Z,78.50
2022-09-21T06:44:19.494Z,78.50
2022-09-21T06:46:48.550Z,78.50
2022-09-21T06:49:17.528Z,78.50
2022-09-21T06:51:48.878Z,78.60
2022-09-21T06:54:18.522Z,78.50
2022-09-21T06:56:47.371Z,79.40
2022-09-21T06:59:16.321Z,78.40
2022-09-21T07:01:45.483Z,78.30
2022-09-21T07:04:14.605Z,78.30
2022-09-21T07:06:43.592Z,78.30
2022-09-21T07:12:03.462Z,78.30
2022-09-21T07:14:32.414Z,78.30
2022-09-21T07:17:01.412Z,78.30
2022-09-21T07:19:30.418Z,78.20
2022-09-21T07:21:59.408Z,78.00
2022-09-21T07:24:30.003Z,77.60
2022-09-21T07:26:59.321Z,77.40
2022-09-21T07:29:28.339Z,77.00
2022-09-21T07:31:57.450Z,76.40
2022-09-21T07:34:26.513Z,75.90
2022-09-21T07:36:55.531Z,75.60
2022-09-21T07:39:24.581Z,75.30
2022-09-21T07:41:55.262Z,75.00
2022-09-21T07:44:24.270Z,74.80
2022-09-21T07:46:53.506Z,74.80
2022-09-21T07:49:22.500Z,74.70
2022-09-21T07:51:51.509Z,74.50
2022-09-21T07:54:20.458Z,74.30
2022-09-21T07:57:09.649Z,74.40
2022-09-21T07:59:39.056Z,74.30
2022-09-21T08:02:08.358Z,74.30
2022-09-21T08:04:37.610Z,74.10
2022-09-21T08:07:06.721Z,73.80
2022-09-21T08:09:36.040Z,73.70
2022-09-21T08:12:05.207Z,73.50
2022-09-21T08:14:34.674Z,73.40
2022-09-21T08:17:06.416Z,73.30
2022-09-21T08:19:36.161Z,73.20
2022-09-21T08:22:05.143Z,72.90
2022-09-21T08:24:35.192Z,72.90
2022-09-21T08:27:04.497Z,72.90
2022-09-21T08:29:33.449Z,72.90
2022-09-21T08:32:04.592Z,72.90
2022-09-21T08:34:33.625Z,72.90
2022-09-21T08:37:02.561Z,72.90
2022-09-21T08:39:31.626Z,72.80
2022-09-21T08:42:21.951Z,72.80
2022-09-21T08:44:55.173Z,72.90
2022-09-21T08:47:43.608Z,72.80
2022-09-21T08:50:33.919Z,72.90
2022-09-21T08:53:07.883Z,73.10
2022-09-21T08:55:36.855Z,72.80
2022-09-21T08:58:07.648Z,72.40
2022-09-21T09:00:42.381Z,72.40
2022-09-21T09:03:43.193Z,72.30
2022-09-21T09:06:23.489Z,72.40
2022-09-21T09:09:16.413Z,72.40
2022-09-21T09:12:11.090Z,72.20
2022-09-21T09:15:04.884Z,72.00
2022-09-21T09:17:54.906Z,71.90
2022-09-21T09:20:30.309Z,71.80
2022-09-21T09:23:08.034Z,71.70
2022-09-21T09:25:40.135Z,71.60
2022-09-21T09:28:23.093Z,71.60
2022-09-21T09:31:00.058Z,71.50
2022-09-21T09:33:37.238Z,71.60
2022-09-21T09:36:08.364Z,71.90
2022-09-21T09:38:40.778Z,71.40
2022-09-21T09:41:39.435Z,71.00
2022-09-21T09:44:26.117Z,70.50
2022-09-21T09:47:06.178Z,70.40
2022-09-21T09:49:48.429Z,70.50
2022-09-21T09:52:19.027Z,70.40
2022-09-21T09:54:48.553Z,70.30
2022-09-21T09:57:27.862Z,70.00
2022-09-21T10:00:27.596Z,69.70
2022-09-21T10:02:58.675Z,69.50
2022-09-21T10:05:34.611Z,69.70
2022-09-21T10:08:05.800Z,69.90
2022-09-21T10:10:37.636Z,70.20
2022-09-21T10:13:13.857Z,70.20
2022-09-21T10:15:46.212Z,70.40
2022-09-21T10:18:27.435Z,70.60
2022-09-21T10:21:02.560Z,70.80
2022-09-21T10:23:33.951Z,70.80
2022-09-21T10:26:04.030Z,70.90
2022-09-21T10:28:33.469Z,71.00
2022-09-21T10:31:21.601Z,70.90
2022-09-21T10:33:54.409Z,71.00
2022-09-21T10:36:35.127Z,71.20
2022-09-21T10:39:26.239Z,71.10
2022-09-21T10:42:00.697Z,70.70
2022-09-21T10:44:35.662Z,70.20
2022-09-21T10:47:17.939Z,70.00
2022-09-21T10:49:50.414Z,70.30
2022-09-21T10:52:21.327Z,70.60
2022-09-21T10:54:55.527Z,70.80
2022-09-21T10:57:26.708Z,70.80
2022-09-21T10:59:57.366Z,70.80
2022-09-21T11:02:46.627Z,70.70
2022-09-21T11:05:18.540Z,70.80
2022-09-21T11:07:51.063Z,70.90
2022-09-21T11:10:29.816Z,71.00
2022-09-21T11:13:17.039Z,71.20
2022-09-21T11:15:53.017Z,71.60
2022-09-21T11:18:27.538Z,71.80
2022-09-21T11:21:00.784Z,72.00
2022-09-21T11:23:43.249Z,72.10
2022-09-21T11:26:23.406Z,72.20
2022-09-21T11:29:00.024Z,72.30
2022-09-21T11:31:42.825Z,72.40
2022-09-21T11:34:31.318Z,72.70
2022-09-21T11:37:11.971Z,72.50
2022-09-21T11:39:57.324Z,72.10
2022-09-21T11:42:41.932Z,72.10
2022-09-21T11:45:25.688Z,72.10
2022-09-21T11:48:05.923Z,72.00
2022-09-21T11:50:56.740Z,71.90
2022-09-21T11:53:38.197Z,71.70
2022-09-21T11:56:22.284Z,71.30
2022-09-21T11:58:59.228Z,71.40
2022-09-21T12:01:43.667Z,71.50
2022-09-21T12:04:37.011Z,71.70
2022-09-21T12:07:18.908Z,71.70
2022-09-21T12:10:07.515Z,71.90
2022-09-21T12:12:44.889Z,71.90
2022-09-21T12:15:20.670Z,73.00
2022-09-21T12:17:58.596Z,72.30
2022-09-21T12:20:33.291Z,72.40
2022-09-21T12:23:06.197Z,72.50
2022-09-21T12:25:39.821Z,72.50
2022-09-21T12:28:15.316Z,72.80
2022-09-21T12:30:53.907Z,72.50
2022-09-21T12:33:34.754Z,72.00
2022-09-21T12:36:10.461Z,71.90
2022-09-21T12:38:45.966Z,71.90
2022-09-21T12:41:22.116Z,71.60
2022-09-21T12:43:58.098Z,71.60
2022-09-21T12:46:34.844Z,71.60
2022-09-21T12:49:14.222Z,71.80
2022-09-21T12:51:46.506Z,71.80
2022-09-21T12:54:27.879Z,71.90
2022-09-21T12:57:29.631Z,72.00
2022-09-21T13:00:04.229Z,72.20
2022-09-21T13:02:38.433Z,72.20
2022-09-21T13:05:14.762Z,72.50
2022-09-21T13:08:00.712Z,72.70
2022-09-21T13:10:42.822Z,72.80
2022-09-21T13:13:24.245Z,72.90
2022-09-21T13:15:53.815Z,73.30
2022-09-21T13:18:33.737Z,73.50
2022-09-21T13:21:18.053Z,73.80
2022-09-21T13:23:56.134Z,74.30
2022-09-21T13:26:34.725Z,74.50
2022-09-21T13:29:22.759Z,74.50
2022-09-21T13:31:58.787Z,74.80
2022-09-21T13:34:35.170Z,75.00
2022-09-21T13:37:31.257Z,75.10
2022-09-21T13:40:42.628Z,75.50
2022-09-21T13:43:23.590Z,75.50
2022-09-21T13:45:59.179Z,75.50
2022-09-21T13:48:30.602Z,75.60
2022-09-21T13:51:08.956Z,75.80
2022-09-21T13:53:42.106Z,76.80
2022-09-21T13:56:19.400Z,75.80
2022-09-21T13:58:52.179Z,76.00
2022-09-21T14:01:45.766Z,76.00
2022-09-21T14:04:22.343Z,75.90
2022-09-21T14:06:54.727Z,76.00
2022-09-21T14:09:28.970Z,76.00
2022-09-21T14:12:02.226Z,75.80
2022-09-21T14:14:38.314Z,75.70
2022-09-21T14:17:28.788Z,75.80
2022-09-21T14:20:01.749Z,75.80
2022-09-21T14:22:40.043Z,75.60
2022-09-21T14:25:51.200Z,75.50
2022-09-21T14:28:35.184Z,75.40
2022-09-21T14:31:09.027Z,75.10
2022-09-21T14:33:47.093Z,74.80
2022-09-21T14:36:20.833Z,74.50
2022-09-21T14:38:58.351Z,74.30
2022-09-21T14:41:34.587Z,74.20
2022-09-21T14:44:03.845Z,74.00
2022-09-21T14:46:59.647Z,73.70
2022-09-21T14:49:53.597Z,73.60
2022-09-21T14:52:35.350Z,73.70
2022-09-21T14:55:17.334Z,73.70
2022-09-21T14:58:02.688Z,73.60
2022-09-21T15:00:39.857Z,73.50
2022-09-21T15:03:41.117Z,73.40
2022-09-21T15:06:38.065Z,73.30
2022-09-21T15:09:57.292Z,73.30
2022-09-21T15:12:40.882Z,74.20
2022-09-21T15:15:30.943Z,73.30
2022-09-21T15:18:01.989Z,73.40
2022-09-21T15:20:33.288Z,73.40
2022-09-21T15:23:04.137Z,73.30
2022-09-21T15:25:35.049Z,73.40
2022-09-21T15:28:05.869Z,73.40
2022-09-21T15:30:45.849Z,73.20
2022-09-21T15:33:15.084Z,73.10
2022-09-21T15:35:47.885Z,73.10
2022-09-21T15:38:39.876Z,73.00
2022-09-21T15:41:25.252Z,72.80
2022-09-21T15:44:12.998Z,72.60
2022-09-21T15:46:43.437Z,72.50
2022-09-21T15:49:14.887Z,72.50
2022-09-21T15:51:46.137Z,72.30
2022-09-21T15:54:25.527Z,72.20
2022-09-21T15:56:55.754Z,72.20
2022-09-21T15:59:26.363Z,72.10
2022-09-21T16:01:58.472Z,72.20
2022-09-21T16:04:29.317Z,72.10
2022-09-21T16:07:06.709Z,72.00
2022-09-21T16:09:42.733Z,72.00
2022-09-21T16:12:35.489Z,71.90
2022-09-21T16:15:18.789Z,71.80
2022-09-21T16:18:01.594Z,71.80
2022-09-21T16:20:42.221Z,71.80
2022-09-21T16:23:18.267Z,72.00
2022-09-21T16:25:56.070Z,71.90
2022-09-21T16:28:31.969Z,71.70
2022-09-21T16:31:22.981Z,71.60
2022-09-21T16:34:17.714Z,71.60
2022-09-21T16:36:49.426Z,71.50
2022-09-21T16:39:20.016Z,71.40
2022-09-21T16:41:55.384Z,71.10
2022-09-21T16:44:26.653Z,70.80
2022-09-21T16:47:00.295Z,70.70
2022-09-21T16:49:33.622Z,70.50
2022-09-21T16:52:03.141Z,70.40
2022-09-21T16:54:32.824Z,70.30
2022-09-21T16:57:03.694Z,70.30
2022-09-21T16:59:33.239Z,70.30
2022-09-21T17:02:05.878Z,70.30
2022-09-21T17:04:36.717Z,70.10
2022-09-21T17:07:06.211Z,69.90
2022-09-21T17:09:38.417Z,70.00
2022-09-21T17:12:09.265Z,69.80
2022-09-21T17:14:41.892Z,70.60
2022-09-21T17:17:20.545Z,69.60
2022-09-21T17:19:50.956Z,69.60
2022-09-21T17:22:20.673Z,69.70
2022-09-21T17:24:52.722Z,69.70
2022-09-21T17:27:26.725Z,69.60
2022-09-21T17:29:56.603Z,69.60
2022-09-21T17:32:26.949Z,69.60
2022-09-21T17:35:01.065Z,69.90
2022-09-21T17:37:30.048Z,70.00
2022-09-21T17:39:59.272Z,70.00
2022-09-21T17:42:29.681Z,70.10
2022-09-21T17:45:12.911Z,70.10
2022-09-21T17:47:43.865Z,70.10
2022-09-21T17:50:26.246Z,70.30
2022-09-21T17:53:14.076Z,70.40
2022-09-21T17:55:49.228Z,70.50
2022-09-21T17:58:39.123Z,70.60
2022-09-21T18:01:12.871Z,70.70
2022-09-21T18:03:44.661Z,70.70
2022-09-21T18:06:14.509Z,70.90
2022-09-21T18:08:43.974Z,71.00
2022-09-21T18:11:34.443Z,71.00
2022-09-21T18:14:10.302Z,71.20
2022-09-21T18:16:51.582Z,71.40
2022-09-21T18:19:32.284Z,71.60
2022-09-21T18:22:12.140Z,71.80
2022-09-21T18:24:42.218Z,72.00
2022-09-21T18:27:13.003Z,72.20
2022-09-21T18:29:42.493Z,72.50
2022-09-21T18:32:34.836Z,72.60
2022-09-21T18:35:24.913Z,72.80
2022-09-21T18:38:04.085Z,72.90
2022-09-21T18:40:41.575Z,73.10
2022-09-21T18:43:26.061Z,73.30
2022-09-21T18:46:01.877Z,73.40
2022-09-21T18:48:48.537Z,73.40
2022-09-21T18:51:25.091Z,73.60
2022-09-21T18:53:56.134Z,73.70
2022-09-21T18:56:26.704Z,73.70
2022-09-21T18:58:58.214Z,73.70
2022-09-21T19:01:30.011Z,73.70
2022-09-21T19:03:59.593Z,73.70
2022-09-21T19:06:53.423Z,73.70
2022-09-21T19:09:45.537Z,73.90
2022-09-21T19:12:25.464Z,74.00
2022-09-21T19:15:01.905Z,74.00
2022-09-21T19:17:45.884Z,74.00
2022-09-21T19:20:31.277Z,74.10
2022-09-21T19:23:09.696Z,74.40
2022-09-21T19:25:49.492Z,74.30
2022-09-21T19:28:38.226Z,74.20
2022-09-21T19:31:12.808Z,74.10
2022-09-21T19:33:51.005Z,73.70
2022-09-21T19:36:21.105Z,73.60
2022-09-21T19:38:51.986Z,73.60
2022-09-21T19:41:36.100Z,73.60
2022-09-21T19:44:31.310Z,73.90
2022-09-21T19:47:09.651Z,74.00
2022-09-21T19:49:48.441Z,74.00
2022-09-21T19:52:19.616Z,74.10
2022-09-21T19:55:07.854Z,74.30
2022-09-21T19:57:55.281Z,74.50
2022-09-21T20:00:24.714Z,74.80
2022-09-21T20:03:07.345Z,75.10
2022-09-21T20:05:48.365Z,75.40
2022-09-21T20:08:24.585Z,75.70
2022-09-21T20:11:03.147Z,75.90
2022-09-21T20:13:45.578Z,75.90
2022-09-21T20:16:28.716Z,75.80
2022-09-21T20:19:06.283Z,75.80
2022-09-21T20:21:39.806Z,75.70
2022-09-21T20:24:19.315Z,75.80
2022-09-21T20:26:51.823Z,75.80
2022-09-21T20:29:22.004Z,75.90
2022-09-21T20:31:53.837Z,75.80
2022-09-21T20:34:22.885Z,75.80
2022-09-21T20:36:51.888Z,75.80
2022-09-21T20:39:20.874Z,75.80
2022-09-21T20:41:51.873Z,75.80
2022-09-21T20:44:22.051Z,75.80
2022-09-21T20:46:51.047Z,75.50
2022-09-21T20:49:20.009Z,75.40
2022-09-21T20:51:49.045Z,75.10
2022-09-21T20:54:18.368Z,75.00
2022-09-21T20:56:47.333Z,74.80
2022-09-21T20:59:17.709Z,74.80
2022-09-21T21:01:46.710Z,74.70
2022-09-21T21:04:15.769Z,74.80
2022-09-21T21:06:45.470Z,74.80
2022-09-21T21:09:15.482Z,74.80
2022-09-21T21:11:44.479Z,74.70
2022-09-21T21:14:13.459Z,74.60
2022-09-21T21:16:43.935Z,74.50
2022-09-21T21:19:13.484Z,74.30
2022-09-21T21:21:42.449Z,75.10
2022-09-21T21:24:29.454Z,74.10
2022-09-21T21:27:02.277Z,74.00
2022-09-21T21:29:32.068Z,73.90
2022-09-21T21:32:03.907Z,73.80
2022-09-21T21:34:32.963Z,73.70
2022-09-21T21:37:01.923Z,73.70
2022-09-21T21:39:30.880Z,73.80
2022-09-21T21:41:59.905Z,73.70
2022-09-21T21:44:29.490Z,73.70
2022-09-21T21:47:10.314Z,73.80
2022-09-21T21:49:49.260Z,73.80
2022-09-21T21:52:18.340Z,73.80
2022-09-21T21:54:47.339Z,73.90
2022-09-21T21:57:16.305Z,74.00
2022-09-21T21:59:45.296Z,74.10
2022-09-21T22:02:15.463Z,74.20
2022-09-21T22:04:44.539Z,74.20
2022-09-21T22:07:14.933Z,74.20
2022-09-21T22:09:43.891Z,74.20
2022-09-21T22:12:12.908Z,74.30
2022-09-21T22:14:41.907Z,74.30
2022-09-21T22:17:10.953Z,74.40
2022-09-21T22:19:39.976Z,74.40
2022-09-21T22:22:09.205Z,74.60
2022-09-21T22:24:39.798Z,74.60
2022-09-21T22:27:09.077Z,74.70
2022-09-21T22:29:39.589Z,74.90
2022-09-21T22:32:08.684Z,75.00
2022-09-21T22:34:38.048Z,75.10
2022-09-21T22:37:07.258Z,75.20
2022-09-21T22:39:36.352Z,75.20
2022-09-21T22:42:07.173Z,75.30
2022-09-21T22:44:36.259Z,75.40
2022-09-21T22:47:05.636Z,75.50
2022-09-21T22:49:34.742Z,75.60
2022-09-21T22:52:03.881Z,75.80
2022-09-21T22:54:32.968Z,75.90
2022-09-21T22:57:02.037Z,76.00
2022-09-21T22:59:32.523Z,76.10
2022-09-21T23:02:01.590Z,76.20
2022-09-21T23:04:30.848Z,76.20
2022-09-21T23:07:00.086Z,76.30
2022-09-21T23:09:29.228Z,76.40
2022-09-21T23:11:58.486Z,76.50
2022-09-21T23:14:27.648Z,76.50
2022-09-21T23:16:58.071Z,76.70
2022-09-21T23:19:27.175Z,76.80
2022-09-21T23:21:56.273Z,76.90
2022-09-21T23:24:25.408Z,77.00
2022-09-21T23:26:54.694Z,77.20
2022-09-21T23:29:23.864Z,77.30
2022-09-21T23:31:53.020Z,77.40
2022-09-21T23:34:23.561Z,77.50
2022-09-21T23:36:52.625Z,77.60
2022-09-21T23:39:21.717Z,77.70
2022-09-21T23:41:51.272Z,77.80
2022-09-21T23:44:20.395Z,77.90
2022-09-21T23:46:49.509Z,78.00
2022-09-21T23:49:18.587Z,78.20
2022-09-21T23:51:49.039Z,78.30
2022-09-21T23:54:19.607Z,78.40
2022-09-21T23:56:48.740Z,78.50
2022-09-21T23:59:17.819Z,78.50
